sensor_id;sensor_type;location;lat;lon;timestamp;P1;durP1;ratioP1;P2;durP2;ratioP2
68438;SDS011;55421;51.600;5.718;2022-11-20T00:01:11;16.20;;;8.90;;
68438;SDS011;55421;51.600;5.718;2022-11-20T00:03:39;19.80;;;10.50;;
68438;SDS011;55421;51.600;5.718;2022-11-20T00:06:10;21.30;;;10.60;;
68438;SDS011;55421;51.600;5.718;2022-11-20T00:08:38;23.10;;;11.70;;
68438;SDS011;55421;51.600;5.718;2022-11-20T00:11:10;16.90;;;9.30;;
68438;SDS011;55421;51.600;5.718;2022-11-20T00:13:38;21.90;;;10.90;;
68438;SDS011;55421;51.600;5.718;2022-11-20T00:16:07;19.30;;;10.10;;
68438;SDS011;55421;51.600;5.718;2022-11-20T00:18:36;17.30;;;9.00;;
68438;SDS011;55421;51.600;5.718;2022-11-20T00:21:04;16.60;;;9.80;;
68438;SDS011;55421;51.600;5.718;2022-11-20T00:23:32;22.70;;;11.10;;
68438;SDS011;55421;51.600;5.718;2022-11-20T00:26:06;21.50;;;11.70;;
68438;SDS011;55421;51.600;5.718;2022-11-20T00:28:34;22.80;;;11.20;;
68438;SDS011;55421;51.600;5.718;2022-11-20T00:31:08;18.70;;;9.90;;
68438;SDS011;55421;51.600;5.718;2022-11-20T00:33:40;22.00;;;11.10;;
68438;SDS011;55421;51.600;5.718;2022-11-20T00:36:12;16.40;;;10.00;;
68438;SDS011;55421;51.600;5.718;2022-11-20T00:38:41;18.70;;;9.70;;
68438;SDS011;55421;51.600;5.718;2022-11-20T00:41:11;19.50;;;10.20;;
68438;SDS011;55421;51.600;5.718;2022-11-20T00:43:41;21.00;;;11.50;;
68438;SDS011;55421;51.600;5.718;2022-11-20T00:46:12;22.50;;;11.20;;
68438;SDS011;55421;51.600;5.718;2022-11-20T00:48:41;21.40;;;11.40;;
68438;SDS011;55421;51.600;5.718;2022-11-20T00:51:11;21.50;;;10.60;;
68438;SDS011;55421;51.600;5.718;2022-11-20T00:53:43;20.40;;;10.10;;
68438;SDS011;55421;51.600;5.718;2022-11-20T00:56:13;16.10;;;9.60;;
68438;SDS011;55421;51.600;5.718;2022-11-20T00:58:44;20.70;;;11.00;;
68438;SDS011;55421;51.600;5.718;2022-11-20T01:01:14;20.60;;;11.50;;
68438;SDS011;55421;51.600;5.718;2022-11-20T01:03:47;19.40;;;10.70;;
68438;SDS011;55421;51.600;5.718;2022-11-20T01:06:16;20.50;;;10.30;;
68438;SDS011;55421;51.600;5.718;2022-11-20T01:08:44;18.80;;;10.40;;
68438;SDS011;55421;51.600;5.718;2022-11-20T01:11:17;20.20;;;11.10;;
68438;SDS011;55421;51.600;5.718;2022-11-20T01:13:49;17.40;;;10.50;;
68438;SDS011;55421;51.600;5.718;2022-11-20T01:16:21;20.90;;;11.40;;
68438;SDS011;55421;51.600;5.718;2022-11-20T01:18:59;21.30;;;11.60;;
68438;SDS011;55421;51.600;5.718;2022-11-20T01:21:32;21.50;;;11.70;;
68438;SDS011;55421;51.600;5.718;2022-11-20T01:24:01;22.20;;;11.40;;
68438;SDS011;55421;51.600;5.718;2022-11-20T01:26:32;21.40;;;11.50;;
68438;SDS011;55421;51.600;5.718;2022-11-20T01:31:29;19.10;;;10.50;;
68438;SDS011;55421;51.600;5.718;2022-11-20T01:33:59;19.70;;;10.70;;
68438;SDS011;55421;51.600;5.718;2022-11-20T01:36:29;19.30;;;9.60;;
68438;SDS011;55421;51.600;5.718;2022-11-20T01:39:00;22.60;;;11.40;;
68438;SDS011;55421;51.600;5.718;2022-11-20T01:41:30;19.10;;;11.00;;
68438;SDS011;55421;51.600;5.718;2022-11-20T01:44:19;18.30;;;9.60;;
68438;SDS011;55421;51.600;5.718;2022-11-20T01:46:59;20.50;;;10.60;;
68438;SDS011;55421;51.600;5.718;2022-11-20T01:49:34;21.40;;;10.70;;
68438;SDS011;55421;51.600;5.718;2022-11-20T01:52:18;23.80;;;12.60;;
68438;SDS011;55421;51.600;5.718;2022-11-20T01:54:49;23.90;;;11.10;;
68438;SDS011;55421;51.600;5.718;2022-11-20T01:57:29;18.40;;;10.00;;
68438;SDS011;55421;51.600;5.718;2022-11-20T02:00:05;19.70;;;10.20;;
68438;SDS011;55421;51.600;5.718;2022-11-20T02:02:38;18.30;;;10.00;;
68438;SDS011;55421;51.600;5.718;2022-11-20T02:05:55;20.40;;;9.90;;
68438;SDS011;55421;51.600;5.718;2022-11-20T02:08:41;19.00;;;9.80;;
68438;SDS011;55421;51.600;5.718;2022-11-20T02:11:07;21.10;;;11.40;;
68438;SDS011;55421;51.600;5.718;2022-11-20T02:13:35;20.30;;;10.40;;
68438;SDS011;55421;51.600;5.718;2022-11-20T02:16:17;20.10;;;10.90;;
68438;SDS011;55421;51.600;5.718;2022-11-20T02:18:48;23.00;;;10.70;;
68438;SDS011;55421;51.600;5.718;2022-11-20T02:21:30;18.90;;;10.40;;
68438;SDS011;55421;51.600;5.718;2022-11-20T02:24:14;25.40;;;12.60;;
68438;SDS011;55421;51.600;5.718;2022-11-20T02:27:04;20.30;;;11.00;;
68438;SDS011;55421;51.600;5.718;2022-11-20T02:29:39;18.80;;;10.00;;
68438;SDS011;55421;51.600;5.718;2022-11-20T02:32:20;19.20;;;10.10;;
68438;SDS011;55421;51.600;5.718;2022-11-20T02:34:49;19.90;;;10.70;;
68438;SDS011;55421;51.600;5.718;2022-11-20T02:37:16;18.60;;;10.60;;
68438;SDS011;55421;51.600;5.718;2022-11-20T02:39:47;20.50;;;10.80;;
68438;SDS011;55421;51.600;5.718;2022-11-20T02:42:16;20.90;;;10.40;;
68438;SDS011;55421;51.600;5.718;2022-11-20T02:44:43;21.90;;;11.60;;
68438;SDS011;55421;51.600;5.718;2022-11-20T02:47:11;24.50;;;11.40;;
68438;SDS011;55421;51.600;5.718;2022-11-20T02:49:38;22.70;;;11.80;;
68438;SDS011;55421;51.600;5.718;2022-11-20T02:52:04;17.90;;;10.50;;
68438;SDS011;55421;51.600;5.718;2022-11-20T02:54:31;17.70;;;10.20;;
68438;SDS011;55421;51.600;5.718;2022-11-20T02:56:57;19.10;;;10.70;;
68438;SDS011;55421;51.600;5.718;2022-11-20T02:59:24;22.10;;;11.30;;
68438;SDS011;55421;51.600;5.718;2022-11-20T03:01:50;24.20;;;11.40;;
68438;SDS011;55421;51.600;5.718;2022-11-20T03:04:17;19.80;;;10.60;;
68438;SDS011;55421;51.600;5.718;2022-11-20T03:06:43;21.10;;;11.90;;
68438;SDS011;55421;51.600;5.718;2022-11-20T03:09:10;25.70;;;12.10;;
68438;SDS011;55421;51.600;5.718;2022-11-20T03:11:36;25.90;;;12.70;;
68438;SDS011;55421;51.600;5.718;2022-11-20T03:14:04;23.70;;;12.10;;
68438;SDS011;55421;51.600;5.718;2022-11-20T03:16:31;22.90;;;11.90;;
68438;SDS011;55421;51.600;5.718;2022-11-20T03:18:59;20.10;;;11.40;;
68438;SDS011;55421;51.600;5.718;2022-11-20T03:21:26;23.10;;;12.30;;
68438;SDS011;55421;51.600;5.718;2022-11-20T03:23:54;23.80;;;12.20;;
68438;SDS011;55421;51.600;5.718;2022-11-20T03:26:23;23.50;;;11.60;;
68438;SDS011;55421;51.600;5.718;2022-11-20T03:28:56;23.10;;;11.70;;
68438;SDS011;55421;51.600;5.718;2022-11-20T03:31:37;22.40;;;11.80;;
68438;SDS011;55421;51.600;5.718;2022-11-20T03:34:10;23.60;;;12.30;;
68438;SDS011;55421;51.600;5.718;2022-11-20T03:36:38;26.80;;;12.30;;
68438;SDS011;55421;51.600;5.718;2022-11-20T03:39:06;21.80;;;10.90;;
68438;SDS011;55421;51.600;5.718;2022-11-20T03:41:37;22.40;;;12.90;;
68438;SDS011;55421;51.600;5.718;2022-11-20T03:44:07;27.10;;;13.90;;
68438;SDS011;55421;51.600;5.718;2022-11-20T03:46:35;25.20;;;12.30;;
68438;SDS011;55421;51.600;5.718;2022-11-20T03:49:03;19.60;;;12.20;;
68438;SDS011;55421;51.600;5.718;2022-11-20T03:51:32;20.10;;;11.10;;
68438;SDS011;55421;51.600;5.718;2022-11-20T03:54:06;21.40;;;11.40;;
68438;SDS011;55421;51.600;5.718;2022-11-20T03:56:38;22.80;;;10.80;;
68438;SDS011;55421;51.600;5.718;2022-11-20T03:59:06;22.30;;;11.00;;
68438;SDS011;55421;51.600;5.718;2022-11-20T04:01:36;21.00;;;11.20;;
68438;SDS011;55421;51.600;5.718;2022-11-20T04:04:04;22.60;;;11.70;;
68438;SDS011;55421;51.600;5.718;2022-11-20T04:06:35;23.80;;;11.30;;
68438;SDS011;55421;51.600;5.718;2022-11-20T04:09:04;25.00;;;12.20;;
68438;SDS011;55421;51.600;5.718;2022-11-20T04:11:34;24.00;;;11.70;;
68438;SDS011;55421;51.600;5.718;2022-11-20T04:14:05;20.30;;;11.40;;
68438;SDS011;55421;51.600;5.718;2022-11-20T04:16:35;23.70;;;11.50;;
68438;SDS011;55421;51.600;5.718;2022-11-20T04:19:04;23.90;;;11.90;;
68438;SDS011;55421;51.600;5.718;2022-11-20T04:21:32;25.40;;;12.60;;
68438;SDS011;55421;51.600;5.718;2022-11-20T04:23:59;19.90;;;11.50;;
68438;SDS011;55421;51.600;5.718;2022-11-20T04:26:27;22.10;;;12.20;;
68438;SDS011;55421;51.600;5.718;2022-11-20T04:28:56;17.90;;;8.40;;
68438;SDS011;55421;51.600;5.718;2022-11-20T04:31:26;20.40;;;10.30;;
68438;SDS011;55421;51.600;5.718;2022-11-20T04:33:54;25.80;;;12.70;;
68438;SDS011;55421;51.600;5.718;2022-11-20T04:36:24;24.00;;;11.80;;
68438;SDS011;55421;51.600;5.718;2022-11-20T04:38:54;18.90;;;10.80;;
68438;SDS011;55421;51.600;5.718;2022-11-20T04:41:28;19.40;;;10.00;;
68438;SDS011;55421;51.600;5.718;2022-11-20T04:43:59;19.40;;;10.80;;
68438;SDS011;55421;51.600;5.718;2022-11-20T04:46:31;20.20;;;11.10;;
68438;SDS011;55421;51.600;5.718;2022-11-20T04:49:02;23.30;;;11.70;;
68438;SDS011;55421;51.600;5.718;2022-11-20T04:51:29;22.60;;;12.00;;
68438;SDS011;55421;51.600;5.718;2022-11-20T04:53:56;21.80;;;11.80;;
68438;SDS011;55421;51.600;5.718;2022-11-20T04:56:23;19.80;;;10.90;;
68438;SDS011;55421;51.600;5.718;2022-11-20T04:58:50;19.90;;;11.30;;
68438;SDS011;55421;51.600;5.718;2022-11-20T05:01:22;19.00;;;10.60;;
68438;SDS011;55421;51.600;5.718;2022-11-20T05:03:50;21.50;;;11.30;;
68438;SDS011;55421;51.600;5.718;2022-11-20T05:06:20;20.80;;;10.50;;
68438;SDS011;55421;51.600;5.718;2022-11-20T05:08:47;17.30;;;8.70;;
68438;SDS011;55421;51.600;5.718;2022-11-20T05:11:17;24.10;;;12.30;;
68438;SDS011;55421;51.600;5.718;2022-11-20T05:13:46;25.30;;;13.00;;
68438;SDS011;55421;51.600;5.718;2022-11-20T05:16:16;22.20;;;12.30;;
68438;SDS011;55421;51.600;5.718;2022-11-20T05:18:45;21.20;;;11.40;;
68438;SDS011;55421;51.600;5.718;2022-11-20T05:21:13;24.60;;;11.40;;
68438;SDS011;55421;51.600;5.718;2022-11-20T05:23:41;22.20;;;11.50;;
68438;SDS011;55421;51.600;5.718;2022-11-20T05:26:16;23.20;;;11.50;;
68438;SDS011;55421;51.600;5.718;2022-11-20T05:28:44;20.30;;;11.30;;
68438;SDS011;55421;51.600;5.718;2022-11-20T05:31:17;23.50;;;12.50;;
68438;SDS011;55421;51.600;5.718;2022-11-20T05:33:45;20.00;;;11.40;;
68438;SDS011;55421;51.600;5.718;2022-11-20T05:36:13;24.00;;;11.50;;
68438;SDS011;55421;51.600;5.718;2022-11-20T05:38:42;20.60;;;11.60;;
68438;SDS011;55421;51.600;5.718;2022-11-20T05:41:16;22.60;;;11.10;;
68438;SDS011;55421;51.600;5.718;2022-11-20T05:43:45;22.20;;;11.80;;
68438;SDS011;55421;51.600;5.718;2022-11-20T05:46:14;21.80;;;11.70;;
68438;SDS011;55421;51.600;5.718;2022-11-20T05:48:43;21.20;;;11.60;;
68438;SDS011;55421;51.600;5.718;2022-11-20T05:51:14;23.10;;;12.80;;
68438;SDS011;55421;51.600;5.718;2022-11-20T05:53:42;23.40;;;11.50;;
68438;SDS011;55421;51.600;5.718;2022-11-20T05:56:12;23.00;;;11.30;;
68438;SDS011;55421;51.600;5.718;2022-11-20T06:01:19;20.70;;;10.60;;
68438;SDS011;55421;51.600;5.718;2022-11-20T06:03:48;23.70;;;10.80;;
68438;SDS011;55421;51.600;5.718;2022-11-20T06:06:17;21.80;;;11.00;;
68438;SDS011;55421;51.600;5.718;2022-11-20T06:08:45;23.20;;;11.40;;
68438;SDS011;55421;51.600;5.718;2022-11-20T06:11:13;22.30;;;11.20;;
68438;SDS011;55421;51.600;5.718;2022-11-20T06:13:41;21.50;;;10.80;;
68438;SDS011;55421;51.600;5.718;2022-11-20T06:16:10;23.30;;;12.00;;
68438;SDS011;55421;51.600;5.718;2022-11-20T06:18:38;21.40;;;10.90;;
68438;SDS011;55421;51.600;5.718;2022-11-20T06:21:10;24.40;;;12.90;;
68438;SDS011;55421;51.600;5.718;2022-11-20T06:23:39;27.70;;;13.60;;
68438;SDS011;55421;51.600;5.718;2022-11-20T06:26:15;21.50;;;12.30;;
68438;SDS011;55421;51.600;5.718;2022-11-20T06:28:46;23.00;;;11.00;;
68438;SDS011;55421;51.600;5.718;2022-11-20T06:31:14;22.10;;;11.10;;
68438;SDS011;55421;51.600;5.718;2022-11-20T06:33:43;23.00;;;11.80;;
68438;SDS011;55421;51.600;5.718;2022-11-20T06:36:13;21.60;;;11.60;;
68438;SDS011;55421;51.600;5.718;2022-11-20T06:38:41;21.70;;;11.50;;
68438;SDS011;55421;51.600;5.718;2022-11-20T06:41:17;23.70;;;11.90;;
68438;SDS011;55421;51.600;5.718;2022-11-20T06:43:45;24.40;;;12.50;;
68438;SDS011;55421;51.600;5.718;2022-11-20T06:46:14;26.10;;;12.50;;
68438;SDS011;55421;51.600;5.718;2022-11-20T06:51:10;27.60;;;13.20;;
68438;SDS011;55421;51.600;5.718;2022-11-20T06:53:38;26.30;;;13.10;;
68438;SDS011;55421;51.600;5.718;2022-11-20T06:56:06;21.90;;;11.60;;
68438;SDS011;55421;51.600;5.718;2022-11-20T06:58:34;21.80;;;11.70;;
68438;SDS011;55421;51.600;5.718;2022-11-20T07:01:20;21.20;;;11.60;;
68438;SDS011;55421;51.600;5.718;2022-11-20T07:03:48;22.20;;;12.70;;
68438;SDS011;55421;51.600;5.718;2022-11-20T07:06:16;26.40;;;13.70;;
68438;SDS011;55421;51.600;5.718;2022-11-20T07:08:42;25.40;;;13.20;;
68438;SDS011;55421;51.600;5.718;2022-11-20T07:11:11;24.40;;;13.20;;
68438;SDS011;55421;51.600;5.718;2022-11-20T07:13:38;25.10;;;13.30;;
68438;SDS011;55421;51.600;5.718;2022-11-20T07:16:07;25.90;;;13.20;;
68438;SDS011;55421;51.600;5.718;2022-11-20T07:18:34;25.70;;;13.10;;
68438;SDS011;55421;51.600;5.718;2022-11-20T07:21:02;22.80;;;12.80;;
68438;SDS011;55421;51.600;5.718;2022-11-20T07:23:30;24.10;;;12.80;;
68438;SDS011;55421;51.600;5.718;2022-11-20T07:25:57;21.90;;;11.40;;
68438;SDS011;55421;51.600;5.718;2022-11-20T07:28:24;21.20;;;11.60;;
68438;SDS011;55421;51.600;5.718;2022-11-20T07:30:52;23.10;;;13.00;;
68438;SDS011;55421;51.600;5.718;2022-11-20T07:33:19;23.30;;;13.30;;
68438;SDS011;55421;51.600;5.718;2022-11-20T07:35:46;23.30;;;12.60;;
68438;SDS011;55421;51.600;5.718;2022-11-20T07:38:13;25.90;;;13.70;;
68438;SDS011;55421;51.600;5.718;2022-11-20T07:40:39;25.00;;;12.50;;
68438;SDS011;55421;51.600;5.718;2022-11-20T07:43:06;20.60;;;11.80;;
68438;SDS011;55421;51.600;5.718;2022-11-20T07:45:33;23.20;;;12.50;;
68438;SDS011;55421;51.600;5.718;2022-11-20T07:47:59;25.60;;;13.60;;
68438;SDS011;55421;51.600;5.718;2022-11-20T07:50:26;25.90;;;13.70;;
68438;SDS011;55421;51.600;5.718;2022-11-20T07:53:00;23.00;;;12.90;;
68438;SDS011;55421;51.600;5.718;2022-11-20T07:55:31;27.90;;;13.10;;
68438;SDS011;55421;51.600;5.718;2022-11-20T07:57:59;23.10;;;12.60;;
68438;SDS011;55421;51.600;5.718;2022-11-20T08:00:26;24.10;;;12.90;;
68438;SDS011;55421;51.600;5.718;2022-11-20T08:02:53;19.80;;;12.20;;
68438;SDS011;55421;51.600;5.718;2022-11-20T08:05:20;19.70;;;12.00;;
68438;SDS011;55421;51.600;5.718;2022-11-20T08:07:47;21.30;;;11.90;;
68438;SDS011;55421;51.600;5.718;2022-11-20T08:10:15;25.40;;;13.30;;
68438;SDS011;55421;51.600;5.718;2022-11-20T08:12:52;23.60;;;13.00;;
68438;SDS011;55421;51.600;5.718;2022-11-20T08:15:39;25.50;;;13.50;;
68438;SDS011;55421;51.600;5.718;2022-11-20T08:18:09;26.90;;;13.00;;
68438;SDS011;55421;51.600;5.718;2022-11-20T08:20:39;24.50;;;13.80;;
68438;SDS011;55421;51.600;5.718;2022-11-20T08:23:07;25.40;;;13.80;;
68438;SDS011;55421;51.600;5.718;2022-11-20T08:25:35;26.10;;;12.80;;
68438;SDS011;55421;51.600;5.718;2022-11-20T08:28:05;18.90;;;11.10;;
68438;SDS011;55421;51.600;5.718;2022-11-20T08:30:33;24.30;;;13.90;;
68438;SDS011;55421;51.600;5.718;2022-11-20T08:33:03;25.60;;;13.70;;
68438;SDS011;55421;51.600;5.718;2022-11-20T08:35:35;28.20;;;14.60;;
68438;SDS011;55421;51.600;5.718;2022-11-20T08:38:06;21.30;;;12.60;;
68438;SDS011;55421;51.600;5.718;2022-11-20T08:40:33;26.40;;;13.40;;
68438;SDS011;55421;51.600;5.718;2022-11-20T08:43:00;22.40;;;12.90;;
68438;SDS011;55421;51.600;5.718;2022-11-20T08:45:27;20.40;;;12.10;;
68438;SDS011;55421;51.600;5.718;2022-11-20T08:47:53;21.10;;;12.80;;
68438;SDS011;55421;51.600;5.718;2022-11-20T08:50:19;25.90;;;14.50;;
68438;SDS011;55421;51.600;5.718;2022-11-20T08:52:46;29.20;;;16.10;;
68438;SDS011;55421;51.600;5.718;2022-11-20T08:55:13;26.20;;;15.30;;
68438;SDS011;55421;51.600;5.718;2022-11-20T08:57:39;27.90;;;14.40;;
68438;SDS011;55421;51.600;5.718;2022-11-20T09:00:07;29.30;;;15.80;;
68438;SDS011;55421;51.600;5.718;2022-11-20T09:02:34;23.60;;;13.00;;
68438;SDS011;55421;51.600;5.718;2022-11-20T09:05:00;22.90;;;11.90;;
68438;SDS011;55421;51.600;5.718;2022-11-20T09:07:29;25.50;;;14.80;;
68438;SDS011;55421;51.600;5.718;2022-11-20T09:09:56;25.40;;;14.70;;
68438;SDS011;55421;51.600;5.718;2022-11-20T09:12:23;27.60;;;14.70;;
68438;SDS011;55421;51.600;5.718;2022-11-20T09:14:49;26.40;;;13.90;;
68438;SDS011;55421;51.600;5.718;2022-11-20T09:17:16;26.60;;;15.50;;
68438;SDS011;55421;51.600;5.718;2022-11-20T09:19:43;27.60;;;14.10;;
68438;SDS011;55421;51.600;5.718;2022-11-20T09:22:09;21.70;;;12.40;;
68438;SDS011;55421;51.600;5.718;2022-11-20T09:24:35;21.90;;;13.60;;
68438;SDS011;55421;51.600;5.718;2022-11-20T09:27:03;25.40;;;14.50;;
68438;SDS011;55421;51.600;5.718;2022-11-20T09:29:31;28.40;;;15.60;;
68438;SDS011;55421;51.600;5.718;2022-11-20T09:31:57;33.30;;;16.30;;
68438;SDS011;55421;51.600;5.718;2022-11-20T09:34:24;29.70;;;16.30;;
68438;SDS011;55421;51.600;5.718;2022-11-20T09:36:50;27.50;;;14.20;;
68438;SDS011;55421;51.600;5.718;2022-11-20T09:39:17;31.10;;;15.50;;
68438;SDS011;55421;51.600;5.718;2022-11-20T09:45:05;22.90;;;13.50;;
68438;SDS011;55421;51.600;5.718;2022-11-20T09:53:17;30.90;;;16.40;;
68438;SDS011;55421;51.600;5.718;2022-11-20T09:55:51;29.90;;;16.30;;
68438;SDS011;55421;51.600;5.718;2022-11-20T09:58:26;29.40;;;16.00;;
68438;SDS011;55421;51.600;5.718;2022-11-20T10:01:16;29.20;;;15.50;;
68438;SDS011;55421;51.600;5.718;2022-11-20T10:06:59;24.90;;;13.80;;
68438;SDS011;55421;51.600;5.718;2022-11-20T10:09:41;25.20;;;14.90;;
68438;SDS011;55421;51.600;5.718;2022-11-20T10:15:32;29.80;;;15.40;;
68438;SDS011;55421;51.600;5.718;2022-11-20T10:18:27;30.40;;;16.60;;
68438;SDS011;55421;51.600;5.718;2022-11-20T10:21:23;25.10;;;13.90;;
68438;SDS011;55421;51.600;5.718;2022-11-20T10:29:36;25.80;;;13.90;;
68438;SDS011;55421;51.600;5.718;2022-11-20T10:32:11;27.70;;;16.00;;
68438;SDS011;55421;51.600;5.718;2022-11-20T10:34:59;31.80;;;16.60;;
68438;SDS011;55421;51.600;5.718;2022-11-20T10:37:32;32.30;;;17.30;;
68438;SDS011;55421;51.600;5.718;2022-11-20T10:42:43;30.90;;;15.90;;
68438;SDS011;55421;51.600;5.718;2022-11-20T10:50:36;29.10;;;16.20;;
68438;SDS011;55421;51.600;5.718;2022-11-20T10:53:45;36.00;;;18.40;;
68438;SDS011;55421;51.600;5.718;2022-11-20T10:59:12;31.70;;;16.60;;
68438;SDS011;55421;51.600;5.718;2022-11-20T11:02:15;33.40;;;14.40;;
68438;SDS011;55421;51.600;5.718;2022-11-20T11:04:51;30.00;;;16.30;;
68438;SDS011;55421;51.600;5.718;2022-11-20T11:07:25;33.30;;;17.20;;
68438;SDS011;55421;51.600;5.718;2022-11-20T11:09:56;39.30;;;19.90;;
68438;SDS011;55421;51.600;5.718;2022-11-20T11:12:25;38.60;;;18.40;;
68438;SDS011;55421;51.600;5.718;2022-11-20T11:14:56;31.10;;;16.80;;
68438;SDS011;55421;51.600;5.718;2022-11-20T11:17:28;35.60;;;16.30;;
68438;SDS011;55421;51.600;5.718;2022-11-20T11:20:24;33.60;;;15.10;;
68438;SDS011;55421;51.600;5.718;2022-11-20T11:22:57;32.00;;;16.40;;
68438;SDS011;55421;51.600;5.718;2022-11-20T11:25:33;35.40;;;17.80;;
68438;SDS011;55421;51.600;5.718;2022-11-20T11:28:19;38.00;;;19.10;;
68438;SDS011;55421;51.600;5.718;2022-11-20T11:30:47;34.10;;;17.30;;
68438;SDS011;55421;51.600;5.718;2022-11-20T11:33:31;32.30;;;17.10;;
68438;SDS011;55421;51.600;5.718;2022-11-20T11:36:04;30.90;;;15.60;;
68438;SDS011;55421;51.600;5.718;2022-11-20T11:38:44;37.10;;;17.20;;
68438;SDS011;55421;51.600;5.718;2022-11-20T11:41:23;34.10;;;16.70;;
68438;SDS011;55421;51.600;5.718;2022-11-20T11:43:56;37.60;;;17.50;;
68438;SDS011;55421;51.600;5.718;2022-11-20T11:46:59;38.50;;;19.80;;
68438;SDS011;55421;51.600;5.718;2022-11-20T11:49:26;38.80;;;17.80;;
68438;SDS011;55421;51.600;5.718;2022-11-20T11:52:13;39.60;;;17.20;;
68438;SDS011;55421;51.600;5.718;2022-11-20T11:57:32;35.40;;;17.10;;
68438;SDS011;55421;51.600;5.718;2022-11-20T12:00:12;39.50;;;17.70;;
68438;SDS011;55421;51.600;5.718;2022-11-20T12:05:18;39.20;;;17.30;;
68438;SDS011;55421;51.600;5.718;2022-11-20T12:07:53;37.10;;;17.30;;
68438;SDS011;55421;51.600;5.718;2022-11-20T12:13:44;33.10;;;16.60;;
68438;SDS011;55421;51.600;5.718;2022-11-20T12:16:19;39.40;;;17.90;;
68438;SDS011;55421;51.600;5.718;2022-11-20T12:18:49;46.40;;;18.80;;
68438;SDS011;55421;51.600;5.718;2022-11-20T12:30:03;32.10;;;15.30;;
68438;SDS011;55421;51.600;5.718;2022-11-20T12:36:00;37.10;;;18.20;;
68438;SDS011;55421;51.600;5.718;2022-11-20T12:41:48;42.20;;;17.90;;
68438;SDS011;55421;51.600;5.718;2022-11-20T12:45:01;46.00;;;20.20;;
68438;SDS011;55421;51.600;5.718;2022-11-20T12:47:58;48.50;;;22.10;;
68438;SDS011;55421;51.600;5.718;2022-11-20T13:02:44;43.90;;;18.90;;
68438;SDS011;55421;51.600;5.718;2022-11-20T13:08:33;50.30;;;21.30;;
68438;SDS011;55421;51.600;5.718;2022-11-20T13:11:07;39.30;;;17.30;;
68438;SDS011;55421;51.600;5.718;2022-11-20T13:13:56;46.60;;;20.50;;
68438;SDS011;55421;51.600;5.718;2022-11-20T13:19:12;58.70;;;23.40;;
68438;SDS011;55421;51.600;5.718;2022-11-20T13:21:46;43.50;;;18.20;;
68438;SDS011;55421;51.600;5.718;2022-11-20T13:26:46;49.80;;;20.80;;
68438;SDS011;55421;51.600;5.718;2022-11-20T13:29:18;48.00;;;20.30;;
68438;SDS011;55421;51.600;5.718;2022-11-20T13:31:47;54.80;;;21.80;;
68438;SDS011;55421;51.600;5.718;2022-11-20T13:34:25;49.40;;;20.20;;
68438;SDS011;55421;51.600;5.718;2022-11-20T13:36:56;49.80;;;18.90;;
68438;SDS011;55421;51.600;5.718;2022-11-20T13:39:35;48.00;;;19.30;;
68438;SDS011;55421;51.600;5.718;2022-11-20T13:44:43;50.20;;;20.50;;
68438;SDS011;55421;51.600;5.718;2022-11-20T13:47:25;50.40;;;20.20;;
68438;SDS011;55421;51.600;5.718;2022-11-20T13:49:55;47.50;;;18.80;;
68438;SDS011;55421;51.600;5.718;2022-11-20T14:01:29;54.40;;;19.90;;
68438;SDS011;55421;51.600;5.718;2022-11-20T14:04:08;45.20;;;18.40;;
68438;SDS011;55421;51.600;5.718;2022-11-20T14:06:45;45.50;;;18.90;;
68438;SDS011;55421;51.600;5.718;2022-11-20T14:09:29;46.10;;;19.70;;
68438;SDS011;55421;51.600;5.718;2022-11-20T14:11:58;51.90;;;19.00;;
68438;SDS011;55421;51.600;5.718;2022-11-20T14:14:30;43.20;;;17.60;;
68438;SDS011;55421;51.600;5.718;2022-11-20T14:17:18;46.80;;;18.20;;
68438;SDS011;55421;51.600;5.718;2022-11-20T14:19:50;42.60;;;18.00;;
68438;SDS011;55421;51.600;5.718;2022-11-20T14:22:20;50.60;;;20.20;;
68438;SDS011;55421;51.600;5.718;2022-11-20T14:27:27;51.00;;;19.10;;
68438;SDS011;55421;51.600;5.718;2022-11-20T14:29:53;51.60;;;19.50;;
68438;SDS011;55421;51.600;5.718;2022-11-20T14:32:24;37.30;;;16.20;;
68438;SDS011;55421;51.600;5.718;2022-11-20T14:35:01;49.90;;;20.60;;
68438;SDS011;55421;51.600;5.718;2022-11-20T14:37:37;48.20;;;18.00;;
68438;SDS011;55421;51.600;5.718;2022-11-20T14:40:32;44.20;;;18.40;;
68438;SDS011;55421;51.600;5.718;2022-11-20T14:43:26;48.30;;;17.80;;
68438;SDS011;55421;51.600;5.718;2022-11-20T14:48:30;46.30;;;19.70;;
68438;SDS011;55421;51.600;5.718;2022-11-20T14:51:01;47.50;;;19.30;;
68438;SDS011;55421;51.600;5.718;2022-11-20T14:53:28;42.30;;;17.10;;
68438;SDS011;55421;51.600;5.718;2022-11-20T14:55:59;45.50;;;17.50;;
68438;SDS011;55421;51.600;5.718;2022-11-20T14:58:29;45.10;;;18.60;;
68438;SDS011;55421;51.600;5.718;2022-11-20T15:03:35;45.00;;;18.20;;
68438;SDS011;55421;51.600;5.718;2022-11-20T15:06:04;43.90;;;17.30;;
68438;SDS011;55421;51.600;5.718;2022-11-20T15:08:33;38.60;;;16.50;;
68438;SDS011;55421;51.600;5.718;2022-11-20T15:11:01;45.90;;;19.70;;
68438;SDS011;55421;51.600;5.718;2022-11-20T15:13:34;41.30;;;17.70;;
68438;SDS011;55421;51.600;5.718;2022-11-20T15:16:20;38.00;;;15.60;;
68438;SDS011;55421;51.600;5.718;2022-11-20T15:18:48;36.70;;;15.90;;
68438;SDS011;55421;51.600;5.718;2022-11-20T15:21:17;31.60;;;14.90;;
68438;SDS011;55421;51.600;5.718;2022-11-20T15:23:45;39.90;;;18.80;;
68438;SDS011;55421;51.600;5.718;2022-11-20T15:26:12;46.90;;;20.00;;
68438;SDS011;55421;51.600;5.718;2022-11-20T15:28:46;43.70;;;17.20;;
68438;SDS011;55421;51.600;5.718;2022-11-20T15:31:16;39.40;;;16.60;;
68438;SDS011;55421;51.600;5.718;2022-11-20T15:33:44;43.10;;;17.20;;
68438;SDS011;55421;51.600;5.718;2022-11-20T15:36:11;45.80;;;18.80;;
68438;SDS011;55421;51.600;5.718;2022-11-20T15:38:38;38.90;;;18.10;;
68438;SDS011;55421;51.600;5.718;2022-11-20T15:41:05;36.20;;;16.80;;
68438;SDS011;55421;51.600;5.718;2022-11-20T15:43:32;34.60;;;15.40;;
68438;SDS011;55421;51.600;5.718;2022-11-20T15:46:02;37.30;;;17.00;;
68438;SDS011;55421;51.600;5.718;2022-11-20T15:48:51;38.60;;;17.20;;
68438;SDS011;55421;51.600;5.718;2022-11-20T15:53:56;38.40;;;17.00;;
68438;SDS011;55421;51.600;5.718;2022-11-20T15:56:24;35.40;;;16.20;;
68438;SDS011;55421;51.600;5.718;2022-11-20T15:58:51;37.60;;;17.80;;
68438;SDS011;55421;51.600;5.718;2022-11-20T16:01:21;35.90;;;17.50;;
68438;SDS011;55421;51.600;5.718;2022-11-20T16:03:48;36.90;;;15.50;;
68438;SDS011;55421;51.600;5.718;2022-11-20T16:06:15;33.60;;;16.40;;
68438;SDS011;55421;51.600;5.718;2022-11-20T16:08:44;36.10;;;17.50;;
68438;SDS011;55421;51.600;5.718;2022-11-20T16:11:16;33.70;;;17.20;;
68438;SDS011;55421;51.600;5.718;2022-11-20T16:13:44;35.80;;;17.40;;
68438;SDS011;55421;51.600;5.718;2022-11-20T16:16:34;38.30;;;17.30;;
68438;SDS011;55421;51.600;5.718;2022-11-20T16:19:02;39.80;;;17.30;;
68438;SDS011;55421;51.600;5.718;2022-11-20T16:21:29;32.70;;;15.20;;
68438;SDS011;55421;51.600;5.718;2022-11-20T16:24:03;32.50;;;15.20;;
68438;SDS011;55421;51.600;5.718;2022-11-20T16:26:31;31.70;;;15.40;;
68438;SDS011;55421;51.600;5.718;2022-11-20T16:28:59;34.50;;;15.90;;
68438;SDS011;55421;51.600;5.718;2022-11-20T16:31:26;38.20;;;15.90;;
68438;SDS011;55421;51.600;5.718;2022-11-20T16:33:55;36.10;;;15.70;;